Terminal Aerodrome Forecast
Issued by NWS Louisville, KY

Home | Current Version | Previous Version | Text Only | Print | Product List | Glossary On
Versions: 1 2 3 4 5 6 7 8 9 10 11 12 13 14 15 16 17 18 19 20 21
000
FTUS43 KLMK 291300 AAA
TAFLEX
TAF AMD
KLEX 291331Z 2914/3012 00000KT 5SM BR SCT250
      TEMPO 2914/2915 1SM BR BKN001
     FM291500 26006KT P6SM SCT040 BKN250
     FM292100 28007KT P6SM VCTS SCT040CB BKN100
     FM300200 VRB03KT 5SM BR SCT080=

USA.gov is the U.S. government's official web portal to all federal, state and local government web resources and services.